Sidnaw, MI

1:03 AM EST on December 08, 2016 (GMT -0500)
Indian Cemetery Road | | Change Station
Active Advisory: Lake Effect Snow Advisory

Elev 830 ft 46.78 °N, 88.41 °W | Updated 30 seconds ago

Snow
Snow
20.8 °F
Feels Like 10 °F
N
9.9
Wind Variable Wind from WSW

Today
High -- | Low -- °F
--% Chance of Precip.
Yesterday
High -- | Low -- °F
Precip. -- in
Pressure 29.87 in
Visibility 5.0 miles
Clouds Overcast 2000 ft
Windchill 10 °F
Dew Point 17 °F
Humidity 84%
Rainfall 0.00 in
Snow Depth Not available.
8:26 AM 5:07 PM
First Quarter, 60% visible
METAR KLNL 080555Z AUTO 26008G14KT 5SM -SN OVC020 M09/M12 A2987 RMK AO2 T10901116 11081 21090 410651090
Pressure 29.87 in
Visibility 5.0 miles
Clouds Overcast 2000 ft
Windchill 10 °F
Dew Point 17 °F
Humidity 84%
Rainfall 0.00 in
Snow Depth Not available.
8:26 AM 5:07 PM
First Quarter, 60% visible
METAR KLNL 080555Z AUTO 26008G14KT 5SM -SN OVC020 M09/M12 A2987 RMK AO2 T10901116 11081 21090 410651090

10-Day Weather Forecast

Almanac

Astronomy

Dec. 08, 2016 Rise Set
Actual Time
Civil Twilight
Nautical Twilight
Astronomical Twilight
Moon
Length of Visible Light
Length of Day
Tomorrow will be .
, % of the Moon is Illuminated

Today's Extremes

State Highs State Lows

Community

WunderPhotos

Upload Photos

1,956,259 photos uploaded!

WunderBlog® & News

Nearby

Air Quality

  Air Quality AQ Index Pollutant
Not available.

Snow Depth

Station Depth Elevation

Earthquake Activity

City Distance Mag. Time & Date
Minimum magnitude displayed is 2.5.

Coastal Water Temperatures

Place Temperature

Stations

Nearby Weather Stations

Station Location Temp. Windchill Dew Point Humidity Wind Precip. Elev Updated Type
                   

Watches & Warnings

Lake Effect Snow Advisory
Issued: 10:06 PM EST Dec. 7, 2016 – National Weather Service

... Lake effect Snow Advisory remains in effect from 1 am Thursday
to 7 am EST Saturday...

Hazardous weather...

* lake effect snow will move into the area as winds turn out of
   the northwest late tonight and continue into early Saturday.
   The heaviest snow is expected Thursday.

* Expect snowfall late tonight into Thursday of 5 to 9 inches. The
   most snow will fall along and north of M-38... including at Nisula.
   The lake effect snow will continue Thursday night through Friday
   night... with additional accumulation expected... heaviest along
   and north of M-38.

Impacts...

* roads will become snow covered and slippery with reduced
   visibilities.

Precautionary/preparedness actions...

* a lake effect Snow Advisory Means Lake-effect snow is
   forecast that will make travel difficult in some areas.

* Prepare... plan... and stay informed. Visit www.Weather.Gov/MQT